Time;durP1;ratioP1;P1;durP2;ratioP2;P2;SDS_P1;SDS_P2;PMS_P1;PMS_P2;Temp;Humidity;BMP_temperature;BMP_pressure;BME280_temperature;BME280_humidity;BME280_pressure;Samples;Min_cycle;Max_cycle;Signal;HPM_P1;HPM_P2
2023/03/03 00:01:42;;;;;;;25.52;12.13;;;;;;;0.08;99.34;101802.22;6015700;23;20720;-67
2023/03/03 00:04:11;;;;;;;21.98;11.73;;;;;;;0.10;99.65;101805.59;6015682;23;20175;-67
2023/03/03 00:06:40;;;;;;;22.98;12.13;;;;;;;0.03;99.60;101809.69;6038818;23;20580;-68
2023/03/03 00:09:10;;;;;;;22.08;12.02;;;;;;;0.03;99.61;101803.50;6038921;23;20168;-68
2023/03/03 00:11:39;;;;;;;28.83;12.45;;;;;;;0.06;100.00;101811.25;6039402;23;20187;-68
2023/03/03 00:14:22;;;;;;;23.70;13.20;;;;;;;0.14;100.00;101809.75;6039978;23;20572;-67
2023/03/03 00:16:51;;;;;;;21.17;12.25;;;;;;;0.22;98.89;101807.38;6040216;23;20195;-68
2023/03/03 00:19:22;;;;;;;19.23;11.40;;;;;;;0.06;99.75;101808.59;6039752;23;20680;-67
2023/03/03 00:21:53;;;;;;;21.20;12.20;;;;;;;0.03;99.23;101796.38;6039255;23;20169;-67
2023/03/03 00:24:24;;;;;;;23.85;12.23;;;;;;;0.09;99.15;101781.78;6039478;23;20175;-67
2023/03/03 00:26:55;;;;;;;21.63;11.80;;;;;;;-0.01;98.96;101792.25;6039445;23;20685;-66
2023/03/03 00:29:29;;;;;;;31.88;12.30;;;;;;;0.09;99.31;101790.59;6038645;23;20187;-67
2023/03/03 00:32:25;;;;;;;22.90;10.73;;;;;;;-0.10;99.73;101792.91;6038319;23;20176;-66
2023/03/03 00:34:56;;;;;;;24.65;12.73;;;;;;;0.04;100.00;101790.09;6008716;23;20180;-67
2023/03/03 00:37:31;;;;;;;21.98;12.43;;;;;;;0.03;100.00;101793.72;6038165;23;20203;-68
2023/03/03 00:40:23;;;;;;;21.27;12.65;;;;;;;0.28;100.00;101790.09;6038169;23;20230;-68
2023/03/03 00:42:55;;;;;;;25.55;12.25;;;;;;;0.36;98.53;101791.22;6037901;23;20164;-66
2023/03/03 00:45:31;;;;;;;22.02;11.40;;;;;;;0.37;98.41;101782.25;6038098;23;20180;-67
2023/03/03 00:48:10;;;;;;;23.15;12.02;;;;;;;0.26;98.88;101784.88;6038087;23;20288;-67
2023/03/03 00:50:43;;;;;;;20.67;12.23;;;;;;;0.15;98.15;101786.63;6038190;23;20617;-66
2023/03/03 00:53:15;;;;;;;21.45;10.07;;;;;;;0.15;98.72;101787.47;6038229;23;20251;-69
2023/03/03 00:55:46;;;;;;;27.88;15.10;;;;;;;0.15;99.17;101779.47;6014214;23;20172;-66
2023/03/03 00:58:17;;;;;;;22.23;12.50;;;;;;;-0.17;99.93;101781.00;6038031;23;20258;-67
2023/03/03 01:00:50;;;;;;;21.75;12.52;;;;;;;-0.20;100.00;101786.56;6038118;23;20259;-68
2023/03/03 01:03:24;;;;;;;26.45;13.25;;;;;;;0.04;100.00;101770.63;6037922;23;20172;-67
2023/03/03 01:05:54;;;;;;;27.52;13.20;;;;;;;0.24;99.82;101757.50;6038036;23;20191;-67
2023/03/03 01:08:24;;;;;;;23.58;13.13;;;;;;;0.25;99.09;101763.69;6039557;23;20212;-68
2023/03/03 01:10:54;;;;;;;26.75;14.00;;;;;;;0.12;99.45;101771.75;6037922;23;20201;-67
2023/03/03 01:13:26;;;;;;;19.83;11.45;;;;;;;0.11;100.00;101769.19;6047728;23;20184;-67
2023/03/03 01:15:56;;;;;;;19.45;11.57;;;;;;;-0.04;100.00;101774.66;6046738;23;20517;-67
2023/03/03 01:18:26;;;;;;;25.45;12.45;;;;;;;0.19;99.78;101773.00;6038023;23;20278;-67
2023/03/03 01:20:56;;;;;;;23.77;12.43;;;;;;;0.25;99.49;101764.53;6037992;23;20176;-67
2023/03/03 01:23:25;;;;;;;21.80;12.82;;;;;;;0.32;99.34;101764.94;6014080;23;20175;-67
2023/03/03 01:25:54;;;;;;;26.70;13.93;;;;;;;0.35;98.56;101762.88;6037580;23;20192;-68
2023/03/03 01:28:23;;;;;;;31.42;15.70;;;;;;;0.37;98.48;101750.31;6039020;23;20192;-66
2023/03/03 01:30:53;;;;;;;24.00;13.07;;;;;;;0.42;98.66;101753.47;6038024;23;20576;-68
2023/03/03 01:33:23;;;;;;;25.70;14.98;;;;;;;0.50;97.71;101754.69;6038033;23;20168;-68
2023/03/03 01:35:53;;;;;;;25.23;13.20;;;;;;;0.38;97.79;101744.03;6014170;23;20372;-67
2023/03/03 01:38:22;;;;;;;30.40;15.57;;;;;;;0.43;98.22;101743.69;6037809;23;20590;-68
2023/03/03 01:40:54;;;;;;;26.88;13.90;;;;;;;0.44;98.42;101734.69;6014252;23;20211;-67
2023/03/03 01:43:26;;;;;;;26.77;14.88;;;;;;;0.31;99.30;101737.44;6037620;23;20177;-68
2023/03/03 01:46:34;;;;;;;27.17;15.30;;;;;;;0.54;98.11;101734.84;6037970;23;20621;-67
2023/03/03 01:49:12;;;;;;;23.30;13.02;;;;;;;0.50;98.14;101725.41;6009206;23;20644;-67
2023/03/03 01:51:48;;;;;;;23.00;14.80;;;;;;;0.53;97.73;101717.19;6039133;23;20248;-70
2023/03/03 01:54:21;;;;;;;30.70;16.50;;;;;;;0.54;97.95;101729.53;6015806;23;20173;-69
2023/03/03 01:56:52;;;;;;;21.77;12.85;;;;;;;0.56;98.00;101735.59;6038426;23;20199;-67
2023/03/03 01:59:27;;;;;;;26.65;13.13;;;;;;;0.54;97.72;101729.53;6038187;23;20220;-67
2023/03/03 02:01:56;;;;;;;22.38;12.80;;;;;;;0.12;98.83;101729.16;6014247;23;20184;-67
2023/03/03 02:04:28;;;;;;;25.20;14.35;;;;;;;0.17;99.87;101734.13;6039699;23;20167;-66
2023/03/03 02:07:03;;;;;;;29.40;13.90;;;;;;;0.14;100.00;101732.56;6038103;23;20205;-67
2023/03/03 02:09:41;;;;;;;25.58;13.80;;;;;;;0.07;100.00;101747.28;6037848;23;20688;-68
2023/03/03 02:12:13;;;;;;;24.85;14.10;;;;;;;0.06;100.00;101750.88;6037941;23;20164;-67
2023/03/03 02:14:42;;;;;;;22.20;13.07;;;;;;;-0.26;100.00;101739.97;6039200;23;20175;-68
2023/03/03 02:17:12;;;;;;;20.73;11.98;;;;;;;-0.05;100.00;101742.88;6037320;23;20192;-69
2023/03/03 02:19:51;;;;;;;31.10;14.20;;;;;;;-0.10;100.00;101750.34;6037312;23;20194;-68
2023/03/03 02:22:27;;;;;;;23.38;12.35;;;;;;;-0.15;100.00;101747.19;6037771;23;20175;-68
2023/03/03 02:25:00;;;;;;;27.10;15.73;;;;;;;-0.19;100.00;101748.34;6037709;23;20234;-67
2023/03/03 02:27:33;;;;;;;25.38;14.55;;;;;;;0.04;100.00;101750.19;6013390;23;20237;-67
2023/03/03 02:30:11;;;;;;;27.08;14.13;;;;;;;-0.05;100.00;101748.19;6037685;23;20165;-67
2023/03/03 02:32:41;;;;;;;23.98;13.98;;;;;;;-0.04;100.00;101749.88;6037515;23;20175;-67
2023/03/03 02:35:31;;;;;;;19.98;12.20;;;;;;;-0.17;100.00;101751.75;6037506;23;20569;-68
2023/03/03 02:38:09;;;;;;;24.85;13.73;;;;;;;0.05;100.00;101743.03;6037482;23;20200;-68
2023/03/03 02:40:43;;;;;;;21.30;13.57;;;;;;;0.09;100.00;101742.69;6039077;23;20526;-67
2023/03/03 02:43:17;;;;;;;27.85;15.63;;;;;;;0.11;100.00;101750.56;6014281;23;20557;-68
2023/03/03 02:45:46;;;;;;;22.73;14.43;;;;;;;-0.05;100.00;101748.19;6038098;23;20182;-66
2023/03/03 02:48:16;;;;;;;22.40;14.65;;;;;;;-0.18;100.00;101750.03;6036769;23;20222;-67
2023/03/03 02:50:45;;;;;;;23.95;13.45;;;;;;;-0.31;100.00;101746.59;6037648;23;20179;-65
2023/03/03 02:53:14;;;;;;;26.48;13.05;;;;;;;-0.18;100.00;101747.38;6037574;23;20172;-67
2023/03/03 02:55:43;;;;;;;19.42;13.02;;;;;;;-0.19;100.00;101753.66;6037661;23;20177;-67
2023/03/03 02:58:14;;;;;;;31.55;15.50;;;;;;;-0.10;100.00;101742.38;6037046;23;20668;-66
2023/03/03 03:00:46;;;;;;;23.83;14.82;;;;;;;-0.22;100.00;101751.22;6037410;23;20179;-68
2023/03/03 03:03:19;;;;;;;28.20;13.88;;;;;;;-0.15;100.00;101752.50;6037578;23;20175;-69
2023/03/03 03:05:49;;;;;;;31.98;16.77;;;;;;;-0.16;100.00;101748.13;6037503;23;20188;-66
2023/03/03 03:08:21;;;;;;;26.20;14.93;;;;;;;-0.22;100.00;101753.88;6036996;23;20201;-67
2023/03/03 03:10:50;;;;;;;34.67;13.95;;;;;;;-0.28;100.00;101752.53;6037659;23;20206;-68
2023/03/03 03:13:20;;;;;;;27.88;13.68;;;;;;;-0.22;100.00;101767.19;6037716;23;20215;-67
2023/03/03 03:15:49;;;;;;;28.80;13.35;;;;;;;-0.27;100.00;101766.69;6037857;23;20200;-67
2023/03/03 03:18:19;;;;;;;27.02;13.95;;;;;;;-0.23;100.00;101773.47;6037094;23;20196;-69
2023/03/03 03:21:09;;;;;;;25.17;12.70;;;;;;;-0.33;100.00;101780.41;6037360;23;20164;-68
2023/03/03 03:23:39;;;;;;;25.60;14.13;;;;;;;-0.42;100.00;101768.63;6037631;23;20570;-67
2023/03/03 03:26:08;;;;;;;24.38;14.38;;;;;;;-0.28;100.00;101771.13;6037396;23;20182;-67
2023/03/03 03:28:39;;;;;;;24.40;11.60;;;;;;;-0.29;100.00;101781.91;6013050;23;20195;-67
2023/03/03 03:31:09;;;;;;;32.15;17.90;;;;;;;-0.53;100.00;101788.00;6037686;23;20172;-66
2023/03/03 03:33:38;;;;;;;27.20;13.82;;;;;;;-0.47;100.00;101781.41;6038921;23;20172;-68
2023/03/03 03:36:08;;;;;;;23.15;12.15;;;;;;;-0.37;100.00;101777.13;6037163;23;20519;-67
2023/03/03 03:38:38;;;;;;;24.88;13.10;;;;;;;-0.58;100.00;101781.34;6037075;23;20202;-67
2023/03/03 03:41:09;;;;;;;22.83;12.52;;;;;;;-0.70;100.00;101769.75;6037984;23;20176;-67
2023/03/03 03:43:40;;;;;;;24.55;12.73;;;;;;;-0.71;100.00;101767.19;6038520;23;20236;-67
2023/03/03 03:46:09;;;;;;;26.38;12.63;;;;;;;-0.68;100.00;101759.88;6037685;23;20235;-68
2023/03/03 03:48:39;;;;;;;28.83;13.45;;;;;;;-0.59;100.00;101759.22;6013317;23;20268;-67
2023/03/03 03:51:11;;;;;;;25.50;11.85;;;;;;;-0.46;100.00;101769.81;6037149;23;20168;-68
2023/03/03 03:53:41;;;;;;;32.80;15.00;;;;;;;-0.27;100.00;101766.69;6013744;23;20180;-68
2023/03/03 03:56:10;;;;;;;26.55;13.98;;;;;;;-0.12;100.00;101761.09;6036985;23;20172;-66
2023/03/03 03:58:43;;;;;;;30.80;16.63;;;;;;;-0.05;100.00;101754.34;6037809;23;20196;-67
2023/03/03 04:01:14;;;;;;;25.30;13.50;;;;;;;-0.30;100.00;101753.59;6039010;23;20623;-68
2023/03/03 04:03:48;;;;;;;25.55;11.88;;;;;;;-0.30;100.00;101753.59;6039062;23;20183;-67
2023/03/03 04:06:20;;;;;;;24.80;13.80;;;;;;;-0.44;100.00;101746.63;6038651;23;20167;-67
2023/03/03 04:08:50;;;;;;;25.38;14.27;;;;;;;-0.60;100.00;101746.88;6045951;23;20212;-67
2023/03/03 04:11:22;;;;;;;25.85;11.60;;;;;;;-0.52;100.00;101743.66;6018807;23;20194;-67
2023/03/03 04:13:52;;;;;;;16.20;10.95;;;;;;;-0.63;100.00;101736.44;6015089;23;20188;-67
2023/03/03 04:16:22;;;;;;;28.88;12.23;;;;;;;-0.61;100.00;101737.19;6039218;23;20202;-67
2023/03/03 04:18:51;;;;;;;29.08;13.45;;;;;;;-0.72;100.00;101734.44;6038957;23;20179;-67
2023/03/03 04:21:21;;;;;;;27.35;13.95;;;;;;;-0.52;100.00;101739.19;6015929;23;20172;-66
2023/03/03 04:23:53;;;;;;;29.02;12.10;;;;;;;-0.68;100.00;101738.63;6039746;23;20252;-68
2023/03/03 04:26:22;;;;;;;32.17;14.25;;;;;;;-0.63;100.00;101747.06;6016522;23;20644;-68
2023/03/03 04:28:53;;;;;;;27.38;12.93;;;;;;;-0.67;100.00;101734.97;6040418;23;20215;-68
2023/03/03 04:31:24;;;;;;;25.77;13.55;;;;;;;-0.66;100.00;101731.34;6040831;23;20171;-67
2023/03/03 04:33:53;;;;;;;21.95;11.70;;;;;;;-0.69;100.00;101742.22;6038694;23;20184;-65
2023/03/03 04:36:23;;;;;;;24.52;14.35;;;;;;;-0.64;100.00;101733.91;6038842;23;20168;-66
2023/03/03 04:38:53;;;;;;;23.40;11.40;;;;;;;-0.68;100.00;101732.44;6039035;23;20249;-67
2023/03/03 04:41:22;;;;;;;28.23;13.02;;;;;;;-0.69;100.00;101734.25;6014982;23;20182;-67
2023/03/03 04:43:52;;;;;;;18.20;11.68;;;;;;;-0.67;100.00;101734.13;6038773;23;20184;-67
2023/03/03 04:46:21;;;;;;;23.58;12.13;;;;;;;-0.71;100.00;101732.63;6038282;23;20380;-67
2023/03/03 04:48:51;;;;;;;24.70;11.00;;;;;;;-1.05;100.00;101739.50;6038531;23;20195;-66
2023/03/03 04:51:21;;;;;;;19.92;9.55;;;;;;;-1.14;100.00;101729.50;6039372;23;20301;-67
2023/03/03 04:53:50;;;;;;;33.42;12.13;;;;;;;-1.23;100.00;101738.97;6040196;23;20195;-67
2023/03/03 04:56:19;;;;;;;23.33;12.27;;;;;;;-1.06;100.00;101737.78;6040502;23;20171;-67
2023/03/03 04:58:50;;;;;;;26.08;12.90;;;;;;;-0.88;100.00;101741.81;6016976;23;20246;-65
2023/03/03 05:01:20;;;;;;;22.52;11.80;;;;;;;-0.81;100.00;101732.44;6040614;23;20180;-67
2023/03/03 05:03:49;;;;;;;21.83;11.07;;;;;;;-0.77;100.00;101738.38;6040680;23;20170;-68
2023/03/03 05:06:19;;;;;;;23.67;11.30;;;;;;;-0.67;100.00;101729.66;6016530;23;20258;-69
2023/03/03 05:08:48;;;;;;;21.85;12.00;;;;;;;-0.73;100.00;101719.47;6040487;23;20218;-67
2023/03/03 05:11:17;;;;;;;23.88;11.68;;;;;;;-0.73;100.00;101726.59;6039991;23;20634;-66
2023/03/03 05:13:46;;;;;;;34.20;13.40;;;;;;;-0.77;100.00;101722.44;6014509;23;20183;-67
2023/03/03 05:16:15;;;;;;;27.15;13.40;;;;;;;-0.64;100.00;101724.13;6014721;23;20263;-68
2023/03/03 05:18:46;;;;;;;25.65;14.50;;;;;;;-0.63;100.00;101717.00;6014671;23;20564;-68
2023/03/03 05:21:15;;;;;;;37.95;14.27;;;;;;;-0.66;100.00;101719.88;6038293;23;20550;-67
2023/03/03 05:23:44;;;;;;;21.48;12.77;;;;;;;-0.62;100.00;101716.88;6015999;23;20263;-68
2023/03/03 05:26:13;;;;;;;28.48;13.82;;;;;;;-0.65;100.00;101719.78;6040693;23;20258;-67
2023/03/03 05:28:42;;;;;;;31.45;15.93;;;;;;;-0.65;100.00;101727.75;6014893;23;20204;-68
2023/03/03 05:31:11;;;;;;;33.92;13.95;;;;;;;-0.59;100.00;101732.63;6038305;23;20202;-68
2023/03/03 05:33:40;;;;;;;27.77;13.73;;;;;;;-0.71;100.00;101737.97;6014450;23;20176;-67
2023/03/03 05:36:11;;;;;;;24.48;14.15;;;;;;;-0.85;100.00;101746.91;6037996;23;20204;-67
2023/03/03 05:38:40;;;;;;;23.80;13.90;;;;;;;-1.00;100.00;101753.28;6013993;23;20192;-67
2023/03/03 05:41:09;;;;;;;21.27;11.70;;;;;;;-0.99;100.00;101749.69;6015108;23;20185;-67
2023/03/03 05:43:38;;;;;;;20.80;12.60;;;;;;;-0.92;100.00;101751.78;6017245;23;20175;-68
2023/03/03 05:46:07;;;;;;;21.27;10.63;;;;;;;-1.12;100.00;101754.16;6038877;23;20215;-68
2023/03/03 05:48:36;;;;;;;28.55;13.98;;;;;;;-0.88;100.00;101750.66;6014554;23;20306;-68
2023/03/03 05:51:06;;;;;;;22.10;11.95;;;;;;;-0.89;100.00;101756.91;6038009;23;20176;-67
2023/03/03 05:53:36;;;;;;;28.70;13.10;;;;;;;-0.69;100.00;101752.00;6014467;23;20176;-67
2023/03/03 05:56:06;;;;;;;28.80;13.75;;;;;;;-0.55;100.00;101758.03;6038132;23;20558;-68
2023/03/03 05:58:35;;;;;;;25.80;13.52;;;;;;;-0.64;100.00;101758.69;6039654;23;20699;-66
2023/03/03 06:01:04;;;;;;;22.13;13.60;;;;;;;-0.79;100.00;101756.25;6038239;23;20176;-67
2023/03/03 06:03:33;;;;;;;15.05;9.15;;;;;;;-1.05;100.00;101758.94;6039507;23;20175;-66
2023/03/03 06:06:03;;;;;;;21.30;9.32;;;;;;;-1.17;100.00;101761.59;6039872;23;20192;-66
2023/03/03 06:08:32;;;;;;;16.17;9.20;;;;;;;-1.07;100.00;101752.91;6038490;23;20731;-68
2023/03/03 06:11:03;;;;;;;21.02;10.35;;;;;;;-0.93;100.00;101759.91;6015096;23;20636;-67
2023/03/03 06:13:32;;;;;;;22.30;9.27;;;;;;;-0.91;100.00;101763.28;6039263;23;20243;-68
2023/03/03 06:16:01;;;;;;;20.10;10.30;;;;;;;-0.76;100.00;101764.00;6038517;23;20319;-68
2023/03/03 06:18:30;;;;;;;18.27;9.25;;;;;;;-0.74;100.00;101770.94;6039251;23;20586;-67
2023/03/03 06:20:59;;;;;;;22.10;10.50;;;;;;;-0.70;100.00;101759.13;6039836;23;20260;-68
2023/03/03 06:23:28;;;;;;;18.55;10.23;;;;;;;-0.77;100.00;101762.31;6039695;23;20642;-68
2023/03/03 06:25:57;;;;;;;17.67;9.00;;;;;;;-0.78;100.00;101768.59;6038874;23;20185;-66
2023/03/03 06:28:28;;;;;;;18.30;9.30;;;;;;;-0.64;100.00;101777.31;6038125;23;20251;-68
2023/03/03 06:30:58;;;;;;;24.83;11.93;;;;;;;-0.63;100.00;101776.31;6014795;23;20628;-67
2023/03/03 06:33:27;;;;;;;20.42;10.18;;;;;;;-0.66;100.00;101778.34;6038826;23;20200;-68
2023/03/03 06:35:56;;;;;;;21.13;11.98;;;;;;;-0.52;100.00;101778.22;6039023;23;20180;-67
2023/03/03 06:38:26;;;;;;;19.05;9.70;;;;;;;-0.64;100.00;101781.78;6038780;23;20589;-67
2023/03/03 06:40:55;;;;;;;22.35;10.75;;;;;;;-0.94;100.00;101771.47;6014884;23;20207;-67
2023/03/03 06:43:24;;;;;;;12.45;8.55;;;;;;;-0.92;100.00;101772.22;6014653;23;20175;-66
2023/03/03 06:45:54;;;;;;;32.20;11.52;;;;;;;-0.74;100.00;101780.72;6038400;23;20576;-67
2023/03/03 06:48:24;;;;;;;18.25;9.35;;;;;;;-0.83;100.00;101782.22;6038554;23;20278;-67
2023/03/03 06:50:52;;;;;;;18.90;12.63;;;;;;;-0.69;100.00;101787.41;6014771;23;20180;-68
2023/03/03 06:53:22;;;;;;;15.45;10.13;;;;;;;-0.63;100.00;101792.28;6038561;23;20231;-67
2023/03/03 06:55:51;;;;;;;20.77;11.65;;;;;;;-0.63;100.00;101794.94;6039404;23;20179;-67
2023/03/03 06:58:22;;;;;;;26.23;12.75;;;;;;;-0.67;100.00;101804.09;6039978;23;20634;-68
2023/03/03 07:00:57;;;;;;;25.58;10.65;;;;;;;-0.61;100.00;101805.47;6045408;23;20159;-67
2023/03/03 07:03:32;;;;;;;25.33;11.90;;;;;;;-0.50;100.00;101806.41;6039016;23;20175;-69
2023/03/03 07:06:02;;;;;;;25.05;12.20;;;;;;;-0.51;100.00;101799.41;6037716;23;20170;-67
2023/03/03 07:08:34;;;;;;;27.58;11.77;;;;;;;-0.59;100.00;101801.75;6038083;23;20579;-68
2023/03/03 07:11:09;;;;;;;27.48;12.55;;;;;;;-0.45;100.00;101814.06;6038172;23;20209;-66
2023/03/03 07:13:46;;;;;;;23.08;12.50;;;;;;;-0.38;100.00;101817.13;6038370;23;20408;-68
2023/03/03 07:16:18;;;;;;;27.98;12.93;;;;;;;-0.47;100.00;101816.81;6037840;23;20171;-67
2023/03/03 07:18:51;;;;;;;22.58;10.20;;;;;;;-0.46;100.00;101818.53;6038051;23;20178;-67
2023/03/03 07:21:23;;;;;;;24.75;12.07;;;;;;;-0.50;100.00;101821.53;6039150;23;20482;-67
2023/03/03 07:23:53;;;;;;;25.77;11.73;;;;;;;-0.41;100.00;101825.31;6038331;23;20180;-68
2023/03/03 07:26:27;;;;;;;27.35;14.60;;;;;;;-0.38;100.00;101822.44;6015267;23;20186;-68
2023/03/03 07:29:00;;;;;;;25.23;13.77;;;;;;;-0.21;100.00;101827.41;6039168;23;20219;-69
2023/03/03 07:31:35;;;;;;;26.90;10.55;;;;;;;-0.27;100.00;101822.53;6037974;23;20176;-67
2023/03/03 07:34:17;;;;;;;18.88;10.63;;;;;;;-0.23;100.00;101824.00;6040303;23;20155;-68
2023/03/03 07:36:46;;;;;;;27.63;13.00;;;;;;;-0.12;100.00;101832.06;6039276;23;20202;-68
2023/03/03 07:39:34;;;;;;;16.63;8.40;;;;;;;-0.35;100.00;101835.53;6039276;23;20613;-67
2023/03/03 07:42:23;;;;;;;17.92;9.68;;;;;;;-0.21;100.00;101832.75;6039260;23;20199;-66
2023/03/03 07:45:03;;;;;;;33.65;10.57;;;;;;;-0.06;100.00;101835.16;6039173;23;20231;-68
2023/03/03 07:47:37;;;;;;;17.58;7.88;;;;;;;-0.20;100.00;101845.09;6039052;23;20200;-67
2023/03/03 07:50:18;;;;;;;21.30;9.80;;;;;;;-0.23;100.00;101846.13;6039110;23;20198;-68
2023/03/03 07:52:55;;;;;;;19.67;9.98;;;;;;;-0.27;100.00;101839.34;6015584;23;20204;-67
2023/03/03 07:55:31;;;;;;;15.68;8.43;;;;;;;-0.26;100.00;101840.19;6039186;23;20168;-67
2023/03/03 07:58:20;;;;;;;28.23;18.80;;;;;;;-0.19;100.00;101844.97;6039313;23;20257;-69
2023/03/03 08:01:28;;;;;;;16.90;9.70;;;;;;;0.05;100.00;101834.34;6039169;23;20690;-68
2023/03/03 08:03:58;;;;;;;23.25;8.93;;;;;;;0.05;100.00;101839.69;6015255;23;20173;-67
2023/03/03 08:06:48;;;;;;;18.50;12.63;;;;;;;-0.02;100.00;101833.13;6038737;23;20189;-67
2023/03/03 08:09:42;;;;;;;14.00;8.60;;;;;;;0.17;100.00;101844.13;6038827;23;20200;-68
2023/03/03 08:12:41;;;;;;;19.08;9.10;;;;;;;0.00;100.00;101841.84;6039355;23;20206;-67
2023/03/03 08:15:20;;;;;;;18.55;8.45;;;;;;;-0.27;100.00;101841.16;6038735;23;20171;-66
2023/03/03 08:17:50;;;;;;;17.90;9.45;;;;;;;0.06;100.00;101838.72;6040700;23;20683;-67
2023/03/03 08:20:44;;;;;;;18.25;10.38;;;;;;;0.13;100.00;101839.13;6040886;23;20219;-66
2023/03/03 08:23:15;;;;;;;18.38;10.52;;;;;;;0.41;100.00;101831.66;6040200;23;20183;-67
2023/03/03 08:25:50;;;;;;;20.00;10.07;;;;;;;0.73;100.00;101831.91;6040628;23;20172;-68
2023/03/03 08:28:20;;;;;;;21.08;11.63;;;;;;;1.10;99.04;101835.28;6040549;23;20248;-68
2023/03/03 08:30:50;;;;;;;15.13;9.40;;;;;;;1.11;97.39;101842.31;6040458;23;20195;-67
2023/03/03 08:33:27;;;;;;;23.63;11.50;;;;;;;1.28;96.71;101828.50;6040738;23;20196;-68
2023/03/03 08:36:00;;;;;;;16.55;9.27;;;;;;;1.08;95.40;101831.03;6043072;23;20196;-68
2023/03/03 08:38:30;;;;;;;21.25;9.70;;;;;;;1.13;96.89;101839.50;6041350;23;20227;-67
2023/03/03 08:40:59;;;;;;;19.75;10.23;;;;;;;1.07;96.32;101831.97;6041396;23;20251;-67
2023/03/03 08:43:28;;;;;;;17.52;10.10;;;;;;;1.07;95.88;101843.50;6041536;23;20202;-67
2023/03/03 08:45:59;;;;;;;23.67;9.45;;;;;;;1.21;95.88;101843.28;6039928;23;20610;-66
2023/03/03 08:48:29;;;;;;;12.20;7.07;;;;;;;1.26;95.16;101841.09;6039324;23;20201;-67
2023/03/03 08:51:00;;;;;;;13.40;6.15;;;;;;;1.16;95.08;101847.28;6039583;23;20586;-68
2023/03/03 08:53:32;;;;;;;17.48;8.32;;;;;;;1.39;94.01;101846.34;6016211;23;20176;-68
2023/03/03 08:56:01;;;;;;;15.88;9.70;;;;;;;1.30;93.81;101847.94;6040898;23;20180;-68
2023/03/03 08:58:30;;;;;;;16.08;7.63;;;;;;;1.23;94.48;101848.50;6039231;23;20238;-67
2023/03/03 09:01:04;;;;;;;13.48;7.80;;;;;;;1.28;94.03;101841.84;6039897;23;20645;-67
2023/03/03 09:03:33;;;;;;;17.27;7.38;;;;;;;1.18;94.22;101843.53;6039803;23;20209;-67
2023/03/03 09:06:03;;;;;;;14.98;7.80;;;;;;;1.31;94.24;101830.94;6015491;23;20177;-67
2023/03/03 09:08:33;;;;;;;15.57;7.53;;;;;;;1.48;93.58;101834.09;6039696;23;20197;-66
2023/03/03 09:11:02;;;;;;;17.92;8.35;;;;;;;1.42;93.24;101829.25;6039750;23;20208;-67
2023/03/03 09:13:32;;;;;;;12.63;7.65;;;;;;;1.43;93.84;101825.63;6040304;23;20187;-67
2023/03/03 09:16:17;;;;;;;14.40;7.85;;;;;;;1.24;94.05;101837.72;6041308;23;20196;-67
2023/03/03 09:18:46;;;;;;;15.20;8.02;;;;;;;1.43;94.19;101836.28;6041747;23;20175;-68
2023/03/03 09:21:24;;;;;;;16.35;9.50;;;;;;;1.49;93.20;101834.00;6040659;23;20256;-68
2023/03/03 09:23:56;;;;;;;18.00;7.75;;;;;;;1.87;92.32;101832.75;6040744;23;20179;-67
2023/03/03 09:26:40;;;;;;;15.57;7.57;;;;;;;1.79;90.88;101833.38;6041400;23;20233;-68
2023/03/03 09:29:22;;;;;;;15.77;7.88;;;;;;;1.79;91.28;101830.72;6041191;23;20245;-66
2023/03/03 09:31:53;;;;;;;14.55;7.72;;;;;;;1.81;91.09;101831.44;6041425;23;20181;-67
2023/03/03 09:34:26;;;;;;;12.15;6.65;;;;;;;1.86;90.44;101833.72;6042648;23;20165;-67
2023/03/03 09:37:46;;;;;;;13.15;6.93;;;;;;;1.65;90.84;101841.63;6042370;23;20216;-68
2023/03/03 09:40:46;;;;;;;11.30;7.75;;;;;;;1.74;91.20;101840.91;6043137;23;20220;-67
2023/03/03 09:43:22;;;;;;;14.77;7.20;;;;;;;1.70;91.44;101844.75;6044795;23;20542;-68
2023/03/03 09:46:04;;;;;;;12.05;6.95;;;;;;;1.83;91.61;101840.16;6018635;23;20165;-69
2023/03/03 09:48:52;;;;;;;16.55;7.95;;;;;;;2.17;90.06;101836.47;6042317;23;20200;-68
2023/03/03 09:51:47;;;;;;;11.32;5.90;;;;;;;2.55;88.43;101833.31;6042076;23;20581;-69
2023/03/03 09:54:26;;;;;;;15.82;8.77;;;;;;;2.35;88.24;101831.44;6015759;23;20181;-68
2023/03/03 09:57:05;;;;;;;13.07;7.22;;;;;;;2.47;87.77;101835.75;6042660;23;20236;-67
2023/03/03 09:59:47;;;;;;;12.70;7.50;;;;;;;2.73;87.20;101830.06;6041687;23;20171;-67
2023/03/03 10:02:38;;;;;;;13.90;8.30;;;;;;;2.49;87.78;101838.31;6038319;23;20169;-67
2023/03/03 10:05:19;;;;;;;15.90;8.73;;;;;;;2.56;87.53;101836.84;6038995;23;20220;-69
2023/03/03 10:08:03;;;;;;;19.15;8.30;;;;;;;2.34;88.05;101842.25;6040004;23;20248;-66
2023/03/03 10:10:53;;;;;;;17.10;9.15;;;;;;;2.45;87.66;101844.88;6037927;23;20298;-67
2023/03/03 10:13:40;;;;;;;14.93;10.25;;;;;;;2.23;88.33;101843.13;6038248;23;20250;-67
2023/03/03 10:16:27;;;;;;;14.77;8.20;;;;;;;2.26;88.81;101836.69;6014228;23;20173;-67
2023/03/03 10:19:02;;;;;;;14.82;8.18;;;;;;;2.36;88.82;101832.28;6037800;23;20169;-67
2023/03/03 10:21:35;;;;;;;17.90;9.93;;;;;;;2.43;89.07;101836.97;6038136;23;20198;-67
2023/03/03 10:24:19;;;;;;;22.23;10.57;;;;;;;2.74;87.58;101829.94;6037891;23;20256;-67
2023/03/03 10:27:14;;;;;;;13.70;9.00;;;;;;;2.42;87.61;101839.81;6038003;23;20239;-67
2023/03/03 10:29:58;;;;;;;14.75;9.45;;;;;;;2.35;87.97;101825.25;6037636;23;20525;-67
2023/03/03 10:32:36;;;;;;;14.75;8.05;;;;;;;2.43;88.29;101834.31;6037666;23;20237;-67
2023/03/03 10:35:44;;;;;;;19.17;11.05;;;;;;;2.53;87.98;101835.25;6037695;23;20171;-67
2023/03/03 10:38:45;;;;;;;18.05;9.10;;;;;;;2.53;87.27;101832.56;6004948;23;20198;-68
2023/03/03 10:41:32;;;;;;;15.95;8.55;;;;;;;2.69;87.92;101831.31;6013637;23;20244;-68
2023/03/03 10:44:21;;;;;;;20.20;8.35;;;;;;;2.57;87.41;101836.69;6037713;23;20204;-68
2023/03/03 10:47:01;;;;;;;14.57;9.07;;;;;;;2.58;88.18;101842.88;6039241;23;20588;-66
2023/03/03 10:49:52;;;;;;;23.10;10.85;;;;;;;2.59;87.86;101842.75;6014201;23;20237;-68
2023/03/03 10:53:15;;;;;;;15.93;10.25;;;;;;;2.41;89.03;101846.13;6037394;23;20272;-67
2023/03/03 10:55:57;;;;;;;18.02;8.88;;;;;;;2.67;89.13;101847.47;6013974;23;20180;-68
2023/03/03 10:58:57;;;;;;;24.05;11.63;;;;;;;2.68;88.26;101848.31;6037578;23;20276;-67
2023/03/03 11:01:36;;;;;;;21.95;10.73;;;;;;;2.67;88.94;101850.13;6037683;23;20195;-68
2023/03/03 11:04:39;;;;;;;18.40;11.93;;;;;;;2.67;88.40;101831.41;6013706;23;20180;-67
2023/03/03 11:07:12;;;;;;;19.33;11.30;;;;;;;2.55;89.79;101843.16;5987299;23;20202;-67
2023/03/03 11:09:57;;;;;;;19.35;11.50;;;;;;;2.74;88.36;101837.13;6039019;23;20283;-68
2023/03/03 11:12:40;;;;;;;18.15;10.52;;;;;;;2.81;89.08;101836.47;6039278;23;20281;-67
2023/03/03 11:15:34;;;;;;;21.38;13.55;;;;;;;3.17;87.72;101828.97;6015467;23;20180;-67
2023/03/03 11:18:20;;;;;;;16.90;10.20;;;;;;;3.28;87.19;101832.44;6038892;23;20284;-66
2023/03/03 11:21:05;;;;;;;20.15;9.77;;;;;;;3.03;86.81;101838.19;6039575;23;20199;-69
2023/03/03 11:23:49;;;;;;;28.20;12.68;;;;;;;2.98;87.69;101827.88;6039812;23;20168;-68
2023/03/03 11:26:30;;;;;;;20.80;11.50;;;;;;;3.14;87.23;101830.09;6039801;23;20584;-67
2023/03/03 11:29:13;;;;;;;22.73;12.07;;;;;;;3.36;86.73;101829.06;6040476;23;20247;-69
2023/03/03 11:31:51;;;;;;;20.75;13.23;;;;;;;3.63;85.67;101834.69;6040468;23;20514;-67
2023/03/03 11:34:36;;;;;;;20.83;11.10;;;;;;;3.56;84.90;101838.91;6042056;23;20519;-68
2023/03/03 11:37:10;;;;;;;22.83;11.80;;;;;;;3.71;84.71;101821.50;6041672;23;20195;-68
2023/03/03 11:39:42;;;;;;;20.08;11.35;;;;;;;3.79;84.14;101832.38;6016420;23;20247;-67
2023/03/03 11:42:23;;;;;;;28.08;11.07;;;;;;;3.62;84.76;101822.31;6039956;23;20165;-67
2023/03/03 11:44:56;;;;;;;17.55;10.95;;;;;;;3.57;85.23;101827.22;6040421;23;20518;-67